Terminal Aerodrome Forecast
Issued by NWS Blacksburg, VA

Home | Current Version | Previous Version | Text Only | Print | Product List | Glossary On
Versions: 1 2 3 4 5 6 7 8 9 10 11 12 13 14 15 16 17 18 19 20 21 22 23 24 25 26 27 28 29 30 31 32
000
FTUS41 KRNK 192335
TAFDAN
TAF
KDAN 192335Z 2000/2024 04004KT P6SM BKN090
     FM200700 00000KT 4SM BR SCT070
     FM201100 00000KT 2SM BR SCT004
     FM201400 VRB03KT P6SM SKC=

USA.gov is the U.S. government's official web portal to all federal, state and local government web resources and services.